PWSweather.com
Personal Weather Stations
Station Observations
MUNLOCHY
Munlochy Mill, MunlochyGB IV8 8NL

Munlochy MillMunlochyGB IV8 8NL

Lat: 57.548611, Lon: -4.2625966

Elevation: 62.336

Station Type: Oregon Scientific WMR200

http://www.millbankhouse.co.uk

Latest ConditionsUpdated 1:35:02 PM GMT Thursday, Nov 14, 2019
Currently Today's Max Today's Min Today's Average
Temperature 41.5°F5.3°C 43.1°F6.2°C 28.8°F-1.8°C 32.1°F0.1°C
Dew Point 37.7°F3.2°C 39.8°F4.3°C 28.0°F-2.2°C 31.2°F-0.4°C
Winds 2.3 mph NE3.7 kmh NE 3.5 mph -5.6 kmh - - 1.7 mph 2.7 kmh
Wind Gusts 4.6 mph7.4 kmh 8.1 mph13.0 kmh - -
Humidity 86% 98% 84% 96%
Pressure 29.89 in1012.2 mb 29.89 in1012.2 mb 29.60 in1002.4 mb -
Precipitation - 0.04 in1.0 mm - -
Hour Temp Dew Point Humidity Winds Wind Gusts Pressure Precip Precip Rate Daily Precip Total
01:35 PM 41.5°F5.3°C 37.7°F3.2°C 86% 2.3 mph NE3.7 kmh NE 4.6 mph7.4 kmh 29.89 in1012.2 mb - 0.01 in0.3 mm 0.04 in1.0 mm
01:30 PM 41.9°F5.5°C 37.7°F3.2°C 85% 3.5 mph NW5.6 kmh NW 2.3 mph3.7 kmh 29.89 in1012.2 mb - 0.01 in0.3 mm 0.04 in1.0 mm
01:25 PM 42.3°F5.7°C 37.8°F3.2°C 84% 3.5 mph E5.6 kmh E 3.5 mph5.6 kmh 29.89 in1012.2 mb - 0.02 in0.5 mm 0.04 in1.0 mm
01:20 PM 42.6°F5.9°C 38.1°F3.4°C 84% 2.3 mph N3.7 kmh N 5.8 mph9.3 kmh 29.89 in1012.2 mb - 0.02 in0.5 mm 0.04 in1.0 mm
01:15 PM 43.0°F6.1°C 38.8°F3.8°C 85% 2.3 mph NW3.7 kmh NW 4.6 mph7.4 kmh 29.89 in1012.2 mb - 0.02 in0.5 mm 0.04 in1.0 mm
01:10 PM 43.1°F6.2°C 39.8°F4.3°C 88% 1.2 mph SW1.9 kmh SW 2.3 mph3.7 kmh 29.89 in1012.2 mb - 0.02 in0.5 mm 0.04 in1.0 mm
01:00 PM 42.4°F5.8°C 39.7°F4.3°C 90% 2.3 mph WSW3.7 kmh WSW 4.6 mph7.4 kmh 29.88 in1011.9 mb - 0.01 in0.3 mm 0.03 in0.8 mm
12:55 PM 41.5°F5.3°C 39.1°F3.9°C 91% 2.3 mph SW3.7 kmh SW 2.3 mph3.7 kmh 29.88 in1011.9 mb - 0.01 in0.3 mm 0.03 in0.8 mm
12:50 PM 40.9°F4.9°C 38.8°F3.8°C 92% 1.2 mph SSE1.9 kmh SSE 3.5 mph5.6 kmh 29.88 in1011.9 mb - 0.01 in0.3 mm 0.03 in0.8 mm
12:45 PM 40.8°F4.9°C 38.7°F3.7°C 92% 1.2 mph SSE1.9 kmh SSE 3.5 mph5.6 kmh 29.88 in1011.9 mb - 0.01 in0.3 mm 0.03 in0.8 mm
12:40 PM 40.5°F4.7°C 38.9°F3.8°C 94% 2.3 mph WSW3.7 kmh WSW 2.3 mph3.7 kmh 29.88 in1011.9 mb - 0.01 in0.3 mm 0.03 in0.8 mm
12:35 PM 39.8°F4.3°C 38.2°F3.4°C 94% 2.3 mph NNE3.7 kmh NNE 3.5 mph5.6 kmh 29.88 in1011.9 mb - 0.01 in0.3 mm 0.03 in0.8 mm
12:30 PM 39.2°F4.0°C 38.1°F3.4°C 96% 1.2 mph WSW1.9 kmh WSW 4.6 mph7.4 kmh 29.88 in1011.9 mb - 0.01 in0.3 mm 0.03 in0.8 mm
12:25 PM 38.1°F3.4°C 37.1°F2.8°C 96% 1.2 mph WNW1.9 kmh WNW 2.3 mph3.7 kmh 29.88 in1011.9 mb - 0.01 in0.3 mm 0.03 in0.8 mm
12:20 PM 37.6°F3.1°C 36.5°F2.5°C 96% Calm Calm 2.3 mph3.7 kmh 29.88 in1011.9 mb - 0.00 in0.0 mm 0.02 in0.5 mm
12:15 PM 37.1°F2.8°C 36.1°F2.3°C 96% Calm Calm 2.3 mph3.7 kmh 29.88 in1011.9 mb - 0.00 in0.0 mm 0.02 in0.5 mm
12:10 PM 37.0°F2.8°C 36.0°F2.2°C 96% 1.2 mph SW1.9 kmh SW 2.3 mph3.7 kmh 29.88 in1011.9 mb - 0.00 in0.0 mm 0.02 in0.5 mm
12:00 PM 37.0°F2.8°C 36.0°F2.2°C 96% 2.3 mph WNW3.7 kmh WNW 1.2 mph1.9 kmh 29.87 in1011.5 mb - 0.00 in0.0 mm 0.02 in0.5 mm
11:55 AM 37.2°F2.9°C 36.2°F2.3°C 96% 2.3 mph WSW3.7 kmh WSW 3.5 mph5.6 kmh 29.87 in1011.5 mb - 0.00 in0.0 mm 0.02 in0.5 mm
11:50 AM 37.2°F2.9°C 36.2°F2.3°C 96% 2.3 mph NW3.7 kmh NW 3.5 mph5.6 kmh 29.87 in1011.5 mb - 0.01 in0.3 mm 0.02 in0.5 mm
11:45 AM 37.0°F2.8°C 36.3°F2.4°C 97% 2.3 mph WNW3.7 kmh WNW 4.6 mph7.4 kmh 29.87 in1011.5 mb - 0.01 in0.3 mm 0.02 in0.5 mm
11:40 AM 36.9°F2.7°C 36.1°F2.3°C 97% 2.3 mph W3.7 kmh W 3.5 mph5.6 kmh 29.86 in1011.2 mb - 0.01 in0.3 mm 0.02 in0.5 mm
11:35 AM 36.3°F2.4°C 35.6°F2.0°C 97% 2.3 mph W3.7 kmh W 4.6 mph7.4 kmh 29.86 in1011.2 mb - 0.01 in0.3 mm 0.02 in0.5 mm
11:30 AM 36.0°F2.2°C 35.2°F1.8°C 97% 2.3 mph WSW3.7 kmh WSW 8.1 mph13.0 kmh 29.86 in1011.2 mb - 0.01 in0.3 mm 0.02 in0.5 mm
11:25 AM 35.6°F2.0°C 34.9°F1.6°C 97% 2.3 mph W3.7 kmh W 4.6 mph7.4 kmh 29.86 in1011.2 mb - 0.01 in0.3 mm 0.02 in0.5 mm
11:20 AM 35.4°F1.9°C 34.7°F1.5°C 97% 2.3 mph W3.7 kmh W 2.3 mph3.7 kmh 29.86 in1011.2 mb - 0.01 in0.3 mm 0.02 in0.5 mm
11:15 AM 35.4°F1.9°C 34.7°F1.5°C 97% 2.3 mph WNW3.7 kmh WNW 2.3 mph3.7 kmh 29.86 in1011.2 mb - 0.02 in0.5 mm 0.02 in0.5 mm
11:10 AM 35.6°F2.0°C 34.8°F1.6°C 97% 2.3 mph SW3.7 kmh SW 4.6 mph7.4 kmh 29.86 in1011.2 mb - 0.02 in0.5 mm 0.02 in0.5 mm
11:00 AM 35.2°F1.8°C 34.5°F1.4°C 97% 2.3 mph SW3.7 kmh SW -- 29.86 in1011.2 mb - 0.02 in0.5 mm 0.02 in0.5 mm
10:55 AM 35.0°F1.7°C 34.2°F1.2°C 97% 2.3 mph SW3.7 kmh SW 4.6 mph7.4 kmh 29.86 in1011.2 mb - 0.02 in0.5 mm 0.02 in0.5 mm
10:50 AM 34.8°F1.6°C 34.1°F1.2°C 97% 1.2 mph WSW1.9 kmh WSW 2.3 mph3.7 kmh 29.86 in1011.2 mb - 0.01 in0.3 mm 0.01 in0.3 mm
10:45 AM 34.9°F1.6°C 34.1°F1.2°C 97% 1.2 mph E1.9 kmh E 1.2 mph1.9 kmh 29.86 in1011.2 mb - 0.01 in0.3 mm 0.01 in0.3 mm
10:40 AM 34.5°F1.4°C 33.8°F1.0°C 97% Calm Calm -- 29.86 in1011.2 mb - 0.01 in0.3 mm 0.01 in0.3 mm
10:35 AM 34.5°F1.4°C 33.8°F1.0°C 97% Calm Calm 2.3 mph3.7 kmh 29.85 in1010.8 mb - 0.01 in0.3 mm 0.01 in0.3 mm
10:30 AM 34.3°F1.3°C 33.8°F1.0°C 98% Calm Calm 2.3 mph3.7 kmh 29.85 in1010.8 mb - 0.01 in0.3 mm 0.01 in0.3 mm
10:25 AM 34.2°F1.2°C 33.7°F0.9°C 98% Calm Calm 1.2 mph1.9 kmh 29.85 in1010.8 mb - 0.01 in0.3 mm 0.01 in0.3 mm
10:20 AM 33.9°F1.1°C 33.4°F0.8°C 98% 1.2 mph WSW1.9 kmh WSW -- 29.85 in1010.8 mb - 0.01 in0.3 mm 0.01 in0.3 mm
10:15 AM 33.6°F0.9°C 32.9°F0.5°C 97% 1.2 mph WSW1.9 kmh WSW 2.3 mph3.7 kmh 29.85 in1010.8 mb - 0.00 in0.0 mm 0.00 in0.0 mm
10:10 AM 33.3°F0.7°C 32.5°F0.3°C 97% 2.3 mph W3.7 kmh W 2.3 mph3.7 kmh 29.84 in1010.5 mb - 0.00 in0.0 mm 0.00 in0.0 mm
10:00 AM 33.3°F0.7°C 32.5°F0.3°C 97% 2.3 mph NW3.7 kmh NW 2.3 mph3.7 kmh 29.84 in1010.5 mb - 0.00 in0.0 mm 0.00 in0.0 mm
09:55 AM 33.4°F0.8°C 32.9°F0.5°C 98% 2.3 mph NW3.7 kmh NW 2.3 mph3.7 kmh 29.83 in1010.2 mb - 0.00 in0.0 mm 0.00 in0.0 mm
09:50 AM 33.4°F0.8°C 32.9°F0.5°C 98% 2.3 mph NW3.7 kmh NW 3.5 mph5.6 kmh 29.83 in1010.2 mb - 0.00 in0.0 mm 0.00 in0.0 mm
09:45 AM 33.3°F0.7°C 32.8°F0.4°C 98% 2.3 mph NW3.7 kmh NW 3.5 mph5.6 kmh 29.83 in1010.2 mb - 0.00 in0.0 mm 0.00 in0.0 mm
09:40 AM 32.9°F0.5°C 32.4°F0.2°C 98% Calm Calm 3.5 mph5.6 kmh 29.83 in1010.2 mb - 0.00 in0.0 mm 0.00 in0.0 mm
09:35 AM 32.5°F0.3°C 32.0°F0.0°C 98% Calm Calm 3.5 mph5.6 kmh 29.82 in1009.8 mb - 0.00 in0.0 mm 0.00 in0.0 mm
09:30 AM 32.0°F0.0°C 31.5°F-0.3°C 98% 1.2 mph SW1.9 kmh SW 2.3 mph3.7 kmh 29.82 in1009.8 mb - 0.00 in0.0 mm 0.00 in0.0 mm
09:25 AM 31.6°F-0.2°C 31.1°F-0.5°C 98% 1.2 mph SW1.9 kmh SW 2.3 mph3.7 kmh 29.82 in1009.8 mb - 0.00 in0.0 mm 0.00 in0.0 mm
09:20 AM 31.5°F-0.3°C 31.0°F-0.6°C 98% 2.3 mph SW3.7 kmh SW 2.3 mph3.7 kmh 29.82 in1009.8 mb - 0.00 in0.0 mm 0.00 in0.0 mm
09:15 AM 31.1°F-0.5°C 30.6°F-0.8°C 98% 2.3 mph SW3.7 kmh SW 1.2 mph1.9 kmh 29.82 in1009.8 mb - 0.00 in0.0 mm 0.00 in0.0 mm
09:10 AM 30.9°F-0.6°C 30.4°F-0.9°C 98% 2.3 mph SSW3.7 kmh SSW 3.5 mph5.6 kmh 29.82 in1009.8 mb - 0.00 in0.0 mm 0.00 in0.0 mm
09:00 AM 30.7°F-0.7°C 30.2°F-1.0°C 98% 2.3 mph WNW3.7 kmh WNW 3.5 mph5.6 kmh 29.82 in1009.8 mb - 0.00 in0.0 mm 0.00 in0.0 mm
08:55 AM 30.6°F-0.8°C 30.1°F-1.1°C 98% 2.3 mph NNW3.7 kmh NNW 2.3 mph3.7 kmh 29.82 in1009.8 mb - 0.00 in0.0 mm 0.02 in0.5 mm
08:50 AM 30.4°F-0.9°C 29.9°F-1.2°C 98% 2.3 mph W3.7 kmh W 3.5 mph5.6 kmh 29.81 in1009.5 mb - 0.00 in0.0 mm 0.02 in0.5 mm
08:45 AM 30.2°F-1.0°C 29.7°F-1.3°C 98% 2.3 mph NW3.7 kmh NW 3.5 mph5.6 kmh 29.81 in1009.5 mb - 0.00 in0.0 mm 0.02 in0.5 mm
08:40 AM 30.0°F-1.1°C 29.3°F-1.5°C 97% 2.3 mph WNW3.7 kmh WNW 3.5 mph5.6 kmh 29.81 in1009.5 mb - 0.00 in0.0 mm 0.02 in0.5 mm
08:35 AM 29.8°F-1.2°C 29.1°F-1.6°C 97% 2.3 mph NW3.7 kmh NW 4.6 mph7.4 kmh 29.80 in1009.1 mb - 0.00 in0.0 mm 0.02 in0.5 mm
08:30 AM 29.7°F-1.3°C 28.9°F-1.7°C 97% 2.3 mph NW3.7 kmh NW 2.3 mph3.7 kmh 29.80 in1009.1 mb - 0.00 in0.0 mm 0.02 in0.5 mm
08:25 AM 29.6°F-1.3°C 28.8°F-1.8°C 97% 2.3 mph NW3.7 kmh NW 2.3 mph3.7 kmh 29.80 in1009.1 mb - 0.00 in0.0 mm 0.02 in0.5 mm
08:20 AM 29.4°F-1.4°C 28.7°F-1.8°C 97% Calm Calm 2.3 mph3.7 kmh 29.80 in1009.1 mb - 0.00 in0.0 mm 0.02 in0.5 mm
08:15 AM 29.3°F-1.5°C 28.6°F-1.9°C 97% Calm Calm 1.2 mph1.9 kmh 29.80 in1009.1 mb - 0.00 in0.0 mm 0.02 in0.5 mm
08:10 AM 29.3°F-1.5°C 28.6°F-1.9°C 97% 2.3 mph WSW3.7 kmh WSW 2.3 mph3.7 kmh 29.79 in1008.8 mb - 0.00 in0.0 mm 0.02 in0.5 mm
08:00 AM 29.5°F-1.4°C 28.7°F-1.8°C 97% 2.3 mph NW3.7 kmh NW 2.3 mph3.7 kmh 29.79 in1008.8 mb - 0.00 in0.0 mm 0.02 in0.5 mm
07:55 AM 29.5°F-1.4°C 28.7°F-1.8°C 97% 2.3 mph WNW3.7 kmh WNW 2.3 mph3.7 kmh 29.79 in1008.8 mb - 0.00 in0.0 mm 0.02 in0.5 mm
07:50 AM 29.5°F-1.4°C 28.7°F-1.8°C 97% 2.3 mph WNW3.7 kmh WNW 4.6 mph7.4 kmh 29.78 in1008.5 mb - 0.00 in0.0 mm 0.02 in0.5 mm
07:45 AM 29.3°F-1.5°C 28.6°F-1.9°C 97% 2.3 mph WNW3.7 kmh WNW 3.5 mph5.6 kmh 29.78 in1008.5 mb - 0.00 in0.0 mm 0.02 in0.5 mm
07:40 AM 29.1°F-1.6°C 28.4°F-2.0°C 97% 2.3 mph SW3.7 kmh SW 3.5 mph5.6 kmh 29.78 in1008.5 mb - 0.00 in0.0 mm 0.02 in0.5 mm
07:35 AM 29.1°F-1.6°C 28.4°F-2.0°C 97% 2.3 mph NW3.7 kmh NW 2.3 mph3.7 kmh 29.77 in1008.1 mb - 0.00 in0.0 mm 0.02 in0.5 mm
07:30 AM 29.3°F-1.5°C 28.5°F-1.9°C 97% 2.3 mph WNW3.7 kmh WNW 3.5 mph5.6 kmh 29.77 in1008.1 mb - 0.00 in0.0 mm 0.02 in0.5 mm
07:25 AM 29.3°F-1.5°C 28.6°F-1.9°C 97% 2.3 mph NW3.7 kmh NW 3.5 mph5.6 kmh 29.77 in1008.1 mb - 0.00 in0.0 mm 0.02 in0.5 mm
07:20 AM 29.1°F-1.6°C 28.4°F-2.0°C 97% 2.3 mph NW3.7 kmh NW 4.6 mph7.4 kmh 29.77 in1008.1 mb - 0.00 in0.0 mm 0.02 in0.5 mm
07:15 AM 28.9°F-1.7°C 28.2°F-2.1°C 97% 2.3 mph NW3.7 kmh NW 4.6 mph7.4 kmh 29.77 in1008.1 mb - 0.00 in0.0 mm 0.02 in0.5 mm
07:10 AM 28.9°F-1.7°C 28.2°F-2.1°C 97% 2.3 mph WNW3.7 kmh WNW 3.5 mph5.6 kmh 29.76 in1007.8 mb - 0.00 in0.0 mm 0.02 in0.5 mm
07:00 AM 28.9°F-1.7°C 28.2°F-2.1°C 97% 2.3 mph NW3.7 kmh NW 3.5 mph5.6 kmh 29.76 in1007.8 mb - 0.00 in0.0 mm 0.02 in0.5 mm
06:55 AM 28.9°F-1.7°C 28.2°F-2.1°C 97% 2.3 mph WNW3.7 kmh WNW 3.5 mph5.6 kmh 29.76 in1007.8 mb - 0.00 in0.0 mm 0.02 in0.5 mm
06:50 AM 29.0°F-1.7°C 28.2°F-2.1°C 97% 2.3 mph NW3.7 kmh NW 3.5 mph5.6 kmh 29.75 in1007.5 mb - 0.00 in0.0 mm 0.02 in0.5 mm
06:45 AM 29.1°F-1.6°C 28.4°F-2.0°C 97% 2.3 mph WNW3.7 kmh WNW 3.5 mph5.6 kmh 29.75 in1007.5 mb - 0.00 in0.0 mm 0.02 in0.5 mm
06:40 AM 29.1°F-1.6°C 28.4°F-2.0°C 97% 2.3 mph NW3.7 kmh NW 4.6 mph7.4 kmh 29.75 in1007.5 mb - 0.00 in0.0 mm 0.02 in0.5 mm
06:35 AM 29.1°F-1.6°C 28.4°F-2.0°C 97% 2.3 mph WNW3.7 kmh WNW 3.5 mph5.6 kmh 29.75 in1007.5 mb - 0.00 in0.0 mm 0.02 in0.5 mm
06:30 AM 29.1°F-1.6°C 28.4°F-2.0°C 97% 2.3 mph WNW3.7 kmh WNW 3.5 mph5.6 kmh 29.75 in1007.5 mb - 0.00 in0.0 mm 0.02 in0.5 mm
06:25 AM 29.1°F-1.6°C 28.6°F-1.9°C 98% 2.3 mph W3.7 kmh W 4.6 mph7.4 kmh 29.74 in1007.1 mb - 0.00 in0.0 mm 0.02 in0.5 mm
06:20 AM 29.1°F-1.6°C 28.6°F-1.9°C 98% Calm Calm 3.5 mph5.6 kmh 29.74 in1007.1 mb - 0.00 in0.0 mm 0.02 in0.5 mm
06:15 AM 28.9°F-1.7°C 28.4°F-2.0°C 98% Calm Calm 3.5 mph5.6 kmh 29.74 in1007.1 mb - 0.00 in0.0 mm 0.02 in0.5 mm
06:10 AM 28.9°F-1.7°C 28.2°F-2.1°C 97% 2.3 mph WNW3.7 kmh WNW -- 29.73 in1006.8 mb - 0.00 in0.0 mm 0.02 in0.5 mm
06:00 AM 28.8°F-1.8°C 28.0°F-2.2°C 97% 1.2 mph WNW1.9 kmh WNW 2.3 mph3.7 kmh 29.73 in1006.8 mb - 0.00 in0.0 mm 0.02 in0.5 mm
05:55 AM 28.8°F-1.8°C 28.0°F-2.2°C 97% 1.2 mph WSW1.9 kmh WSW 2.3 mph3.7 kmh 29.72 in1006.4 mb - 0.00 in0.0 mm 0.02 in0.5 mm
05:50 AM 28.8°F-1.8°C 28.0°F-2.2°C 97% 2.3 mph SW3.7 kmh SW 3.5 mph5.6 kmh 29.72 in1006.4 mb - 0.00 in0.0 mm 0.02 in0.5 mm
05:45 AM 28.8°F-1.8°C 28.0°F-2.2°C 97% 2.3 mph WNW3.7 kmh WNW 2.3 mph3.7 kmh 29.72 in1006.4 mb - 0.00 in0.0 mm 0.02 in0.5 mm
05:40 AM 28.8°F-1.8°C 28.0°F-2.2°C 97% 1.2 mph WNW1.9 kmh WNW 4.6 mph7.4 kmh 29.72 in1006.4 mb - 0.00 in0.0 mm 0.02 in0.5 mm
05:35 AM 28.9°F-1.7°C 28.2°F-2.1°C 97% 1.2 mph WSW1.9 kmh WSW -- 29.72 in1006.4 mb - 0.00 in0.0 mm 0.02 in0.5 mm
05:30 AM 29.0°F-1.7°C 28.2°F-2.1°C 97% 2.3 mph WSW3.7 kmh WSW 2.3 mph3.7 kmh 29.72 in1006.4 mb - 0.00 in0.0 mm 0.02 in0.5 mm
05:25 AM 29.1°F-1.6°C 28.4°F-2.0°C 97% 2.3 mph NW3.7 kmh NW 2.3 mph3.7 kmh 29.71 in1006.1 mb - 0.00 in0.0 mm 0.02 in0.5 mm
05:20 AM 29.1°F-1.6°C 28.4°F-2.0°C 97% 1.2 mph NW1.9 kmh NW 3.5 mph5.6 kmh 29.71 in1006.1 mb - 0.00 in0.0 mm 0.02 in0.5 mm
05:15 AM 29.1°F-1.6°C 28.4°F-2.0°C 97% 1.2 mph NW1.9 kmh NW 2.3 mph3.7 kmh 29.71 in1006.1 mb - 0.00 in0.0 mm 0.02 in0.5 mm
05:10 AM 29.3°F-1.5°C 28.6°F-1.9°C 97% 1.2 mph WNW1.9 kmh WNW 2.3 mph3.7 kmh 29.71 in1006.1 mb - 0.00 in0.0 mm 0.02 in0.5 mm
05:00 AM 29.6°F-1.3°C 28.9°F-1.7°C 97% 1.2 mph NW1.9 kmh NW 2.3 mph3.7 kmh 29.71 in1006.1 mb - 0.00 in0.0 mm 0.02 in0.5 mm
04:55 AM 29.7°F-1.3°C 28.9°F-1.7°C 97% 1.2 mph NW1.9 kmh NW -- 29.71 in1006.1 mb - 0.00 in0.0 mm 0.02 in0.5 mm
04:50 AM 29.7°F-1.3°C 28.9°F-1.7°C 97% 2.3 mph NW3.7 kmh NW 2.3 mph3.7 kmh 29.70 in1005.8 mb - 0.00 in0.0 mm 0.02 in0.5 mm
04:45 AM 29.8°F-1.2°C 29.1°F-1.6°C 97% 2.3 mph NNW3.7 kmh NNW 3.5 mph5.6 kmh 29.70 in1005.8 mb - 0.00 in0.0 mm 0.02 in0.5 mm
04:40 AM 29.8°F-1.2°C 29.1°F-1.6°C 97% 2.3 mph WNW3.7 kmh WNW 3.5 mph5.6 kmh 29.70 in1005.8 mb - 0.00 in0.0 mm 0.02 in0.5 mm
04:35 AM 30.0°F-1.1°C 29.3°F-1.5°C 97% 2.3 mph NW3.7 kmh NW 3.5 mph5.6 kmh 29.70 in1005.8 mb - 0.00 in0.0 mm 0.02 in0.5 mm
04:30 AM 30.1°F-1.1°C 29.3°F-1.5°C 97% 2.3 mph NW3.7 kmh NW 2.3 mph3.7 kmh 29.70 in1005.8 mb - 0.00 in0.0 mm 0.02 in0.5 mm
04:25 AM 30.2°F-1.0°C 29.5°F-1.4°C 97% 2.3 mph NW3.7 kmh NW -- 29.70 in1005.8 mb - 0.00 in0.0 mm 0.02 in0.5 mm
04:20 AM 30.2°F-1.0°C 29.7°F-1.3°C 98% 2.3 mph NW3.7 kmh NW 2.3 mph3.7 kmh 29.70 in1005.8 mb - 0.00 in0.0 mm 0.02 in0.5 mm
04:15 AM 30.2°F-1.0°C 29.7°F-1.3°C 98% 2.3 mph NW3.7 kmh NW 3.5 mph5.6 kmh 29.70 in1005.8 mb - 0.00 in0.0 mm 0.02 in0.5 mm
04:10 AM 30.0°F-1.1°C 29.3°F-1.5°C 97% 1.2 mph NW1.9 kmh NW 3.5 mph5.6 kmh 29.70 in1005.8 mb - 0.00 in0.0 mm 0.02 in0.5 mm
04:00 AM 30.0°F-1.1°C 29.3°F-1.5°C 97% 2.3 mph NNW3.7 kmh NNW -- 29.70 in1005.8 mb - 0.00 in0.0 mm 0.02 in0.5 mm
03:55 AM 30.0°F-1.1°C 29.3°F-1.5°C 97% 2.3 mph NW3.7 kmh NW 3.5 mph5.6 kmh 29.69 in1005.4 mb - 0.00 in0.0 mm 0.02 in0.5 mm
03:50 AM 30.0°F-1.1°C 29.3°F-1.5°C 97% 2.3 mph NW3.7 kmh NW 2.3 mph3.7 kmh 29.69 in1005.4 mb - 0.00 in0.0 mm 0.02 in0.5 mm
03:45 AM 30.0°F-1.1°C 29.3°F-1.5°C 97% 2.3 mph WNW3.7 kmh WNW 2.3 mph3.7 kmh 29.69 in1005.4 mb - 0.00 in0.0 mm 0.02 in0.5 mm
03:40 AM 30.0°F-1.1°C 29.3°F-1.5°C 97% 2.3 mph NW3.7 kmh NW 3.5 mph5.6 kmh 29.68 in1005.1 mb - 0.00 in0.0 mm 0.02 in0.5 mm
03:35 AM 29.8°F-1.2°C 29.1°F-1.6°C 97% 2.3 mph WSW3.7 kmh WSW 2.3 mph3.7 kmh 29.68 in1005.1 mb - 0.00 in0.0 mm 0.02 in0.5 mm
03:30 AM 29.8°F-1.2°C 29.1°F-1.6°C 97% 1.2 mph WNW1.9 kmh WNW 4.6 mph7.4 kmh 29.68 in1005.1 mb - 0.00 in0.0 mm 0.02 in0.5 mm
03:25 AM 29.8°F-1.2°C 29.1°F-1.6°C 97% 1.2 mph SW1.9 kmh SW -- 29.68 in1005.1 mb - 0.00 in0.0 mm 0.02 in0.5 mm
03:20 AM 30.0°F-1.1°C 29.3°F-1.5°C 97% 2.3 mph SW3.7 kmh SW 3.5 mph5.6 kmh 29.68 in1005.1 mb - 0.00 in0.0 mm 0.02 in0.5 mm
03:15 AM 30.0°F-1.1°C 29.3°F-1.5°C 97% 2.3 mph WNW3.7 kmh WNW -- 29.68 in1005.1 mb - 0.00 in0.0 mm 0.02 in0.5 mm
03:10 AM 30.0°F-1.1°C 29.3°F-1.5°C 97% Calm Calm 3.5 mph5.6 kmh 29.67 in1004.7 mb - 0.00 in0.0 mm 0.02 in0.5 mm
03:00 AM 30.0°F-1.1°C 29.3°F-1.5°C 97% 2.3 mph NW3.7 kmh NW 2.3 mph3.7 kmh 29.67 in1004.7 mb - 0.00 in0.0 mm 0.02 in0.5 mm
02:55 AM 30.0°F-1.1°C 29.3°F-1.5°C 97% 2.3 mph WNW3.7 kmh WNW 2.3 mph3.7 kmh 29.67 in1004.7 mb - 0.00 in0.0 mm 0.02 in0.5 mm
02:50 AM 30.0°F-1.1°C 29.3°F-1.5°C 97% 2.3 mph WNW3.7 kmh WNW 2.3 mph3.7 kmh 29.67 in1004.7 mb - 0.00 in0.0 mm 0.02 in0.5 mm
02:45 AM 30.2°F-1.0°C 29.5°F-1.4°C 97% 2.3 mph W3.7 kmh W 2.3 mph3.7 kmh 29.67 in1004.7 mb - 0.00 in0.0 mm 0.02 in0.5 mm
02:40 AM 30.0°F-1.1°C 29.3°F-1.5°C 97% 2.3 mph NW3.7 kmh NW 3.5 mph5.6 kmh 29.66 in1004.4 mb - 0.00 in0.0 mm 0.02 in0.5 mm
02:35 AM 30.0°F-1.1°C 29.3°F-1.5°C 97% 2.3 mph W3.7 kmh W 2.3 mph3.7 kmh 29.66 in1004.4 mb - 0.00 in0.0 mm 0.02 in0.5 mm
02:30 AM 30.1°F-1.1°C 29.3°F-1.5°C 97% 2.3 mph SW3.7 kmh SW 2.3 mph3.7 kmh 29.66 in1004.4 mb - 0.00 in0.0 mm 0.02 in0.5 mm
02:25 AM 30.2°F-1.0°C 29.5°F-1.4°C 97% 2.3 mph SW3.7 kmh SW 4.6 mph7.4 kmh 29.66 in1004.4 mb - 0.00 in0.0 mm 0.02 in0.5 mm
02:20 AM 30.3°F-0.9°C 29.6°F-1.3°C 97% 2.3 mph WSW3.7 kmh WSW 2.3 mph3.7 kmh 29.66 in1004.4 mb - 0.00 in0.0 mm 0.02 in0.5 mm
02:15 AM 30.3°F-0.9°C 29.6°F-1.3°C 97% 2.3 mph W3.7 kmh W 2.3 mph3.7 kmh 29.66 in1004.4 mb - 0.00 in0.0 mm 0.02 in0.5 mm
02:10 AM 30.4°F-0.9°C 29.6°F-1.3°C 97% 1.2 mph WNW1.9 kmh WNW 3.5 mph5.6 kmh 29.66 in1004.4 mb - 0.00 in0.0 mm 0.02 in0.5 mm
02:00 AM 30.4°F-0.9°C 29.6°F-1.3°C 97% 2.3 mph WSW3.7 kmh WSW 2.3 mph3.7 kmh 29.65 in1004.1 mb - 0.00 in0.0 mm 0.02 in0.5 mm
01:55 AM 30.6°F-0.8°C 29.8°F-1.2°C 97% 2.3 mph WNW3.7 kmh WNW 2.3 mph3.7 kmh 29.65 in1004.1 mb - 0.00 in0.0 mm 0.02 in0.5 mm
01:50 AM 30.6°F-0.8°C 29.8°F-1.2°C 97% Calm Calm 2.3 mph3.7 kmh 29.65 in1004.1 mb - 0.00 in0.0 mm 0.02 in0.5 mm
01:45 AM 30.6°F-0.8°C 29.8°F-1.2°C 97% Calm Calm -- 29.65 in1004.1 mb - 0.00 in0.0 mm 0.02 in0.5 mm
01:40 AM 30.7°F-0.7°C 30.0°F-1.1°C 97% Calm Calm -- 29.64 in1003.7 mb - 0.00 in0.0 mm 0.02 in0.5 mm
01:35 AM 30.8°F-0.7°C 30.1°F-1.1°C 97% Calm Calm 1.2 mph1.9 kmh 29.64 in1003.7 mb - 0.00 in0.0 mm 0.02 in0.5 mm
01:30 AM 30.9°F-0.6°C 30.2°F-1.0°C 97% 1.2 mph NW1.9 kmh NW -- 29.64 in1003.7 mb - 0.00 in0.0 mm 0.02 in0.5 mm
01:25 AM 31.0°F-0.6°C 30.2°F-1.0°C 97% 1.2 mph NW1.9 kmh NW -- 29.64 in1003.7 mb - 0.00 in0.0 mm 0.02 in0.5 mm
01:20 AM 31.3°F-0.4°C 30.5°F-0.8°C 97% 1.2 mph NW1.9 kmh NW 2.3 mph3.7 kmh 29.63 in1003.4 mb - 0.00 in0.0 mm 0.02 in0.5 mm
01:15 AM 31.3°F-0.4°C 30.5°F-0.8°C 97% 1.2 mph NW1.9 kmh NW 2.3 mph3.7 kmh 29.63 in1003.4 mb - 0.00 in0.0 mm 0.02 in0.5 mm
01:10 AM 31.5°F-0.3°C 30.7°F-0.7°C 97% Calm Calm 2.3 mph3.7 kmh 29.63 in1003.4 mb - 0.00 in0.0 mm 0.02 in0.5 mm
01:00 AM 31.5°F-0.3°C 30.7°F-0.7°C 97% 1.2 mph SW1.9 kmh SW -- 29.63 in1003.4 mb - 0.00 in0.0 mm 0.02 in0.5 mm
12:55 AM 31.5°F-0.3°C 30.7°F-0.7°C 97% 1.2 mph NW1.9 kmh NW 2.3 mph3.7 kmh 29.62 in1003.0 mb - 0.00 in0.0 mm 0.02 in0.5 mm
12:50 AM 31.5°F-0.3°C 30.7°F-0.7°C 97% 2.3 mph NW3.7 kmh NW -- 29.62 in1003.0 mb - 0.00 in0.0 mm 0.02 in0.5 mm
12:45 AM 31.6°F-0.2°C 30.9°F-0.6°C 97% 2.3 mph NW3.7 kmh NW 3.5 mph5.6 kmh 29.62 in1003.0 mb - 0.00 in0.0 mm 0.02 in0.5 mm
12:40 AM 31.6°F-0.2°C 30.9°F-0.6°C 97% Calm Calm 2.3 mph3.7 kmh 29.61 in1002.7 mb - 0.00 in0.0 mm 0.02 in0.5 mm
12:35 AM 31.8°F-0.1°C 31.1°F-0.5°C 97% Calm Calm 2.3 mph3.7 kmh 29.61 in1002.7 mb - 0.00 in0.0 mm 0.02 in0.5 mm
12:30 AM 31.8°F-0.1°C 31.1°F-0.5°C 97% 1.2 mph W1.9 kmh W 1.2 mph1.9 kmh 29.61 in1002.7 mb - 0.00 in0.0 mm 0.02 in0.5 mm
12:25 AM 32.0°F0.0°C 31.2°F-0.4°C 97% 1.2 mph WSW1.9 kmh WSW 1.2 mph1.9 kmh 29.61 in1002.7 mb - 0.00 in0.0 mm 0.02 in0.5 mm
12:20 AM 32.0°F0.0°C 31.2°F-0.4°C 97% 1.2 mph NW1.9 kmh NW 2.3 mph3.7 kmh 29.61 in1002.7 mb - 0.00 in0.0 mm 0.02 in0.5 mm
12:15 AM 32.0°F0.0°C 31.2°F-0.4°C 97% 1.2 mph SW1.9 kmh SW 2.3 mph3.7 kmh 29.61 in1002.7 mb - 0.00 in0.0 mm 0.02 in0.5 mm
12:10 AM 32.0°F0.0°C 31.2°F-0.4°C 97% 2.3 mph W3.7 kmh W 2.3 mph3.7 kmh 29.61 in1002.7 mb - 0.00 in0.0 mm 0.02 in0.5 mm
12:00 AM 31.9°F-0.1°C 31.2°F-0.4°C 97% 1.2 mph WSW1.9 kmh WSW 3.5 mph5.6 kmh 29.60 in1002.4 mb - 0.00 in0.0 mm 0.02 in0.5 mm